Hurst, TX (76054)

2:52 PM CST on December 28, 2014 (GMT -0600)
Hometown | Change Station
CLOSE
Current Station
Personal Weather Station
Location: North Richland Hills, TX
Elevation: 611 ft
Nearby Weather Stations

Elev 611 ft 32.86 °N, 97.20 °W | Updated 1 second ago

Clear
Clear
48.7 °F
Feels Like 49 °F
N
1.0
Wind Variable Wind from NW
Gusts 1.0 mph

Today
High -- | Low -- °F
--% Chance of Precip.
Yesterday
High -- | Low -- °F
Precip. -- in
7:30 AM 5:30 PM
Waxing Crescent, 51% visible
Pressure 30.18 in
Visibility 10.0 miles
Clouds Few 9000 ft
Few 12000 ft
Windchill 49 °F
Dew Point 26 °F
Humidity 40%
Rainfall 0.00 in
Snow Depth Not available.
UV 0.6 out of 12
Pollen 9.50 out of 12
Air Quality Not available.
Flu Activity Not available.
METAR KDFW 281953Z 32006KT 10SM FEW090 FEW120 08/M05 A3017 RMK AO2 SLP218 T00781050 $

More Conditions Fewer Conditions

Pressure 30.18 in
Visibility 10.0 miles
Clouds Few 9000 ft
Few 12000 ft
Windchill 49 °F
Dew Point 26 °F
Humidity 40%
Rainfall 0.00 in
Snow Depth Not available.
UV 0.6 out of 12
Pollen 9.50 out of 12
Air Quality Not available.
Flu Activity Not available.
METAR KDFW 281953Z 32006KT 10SM FEW090 FEW120 08/M05 A3017 RMK AO2 SLP218 T00781050 $

More Conditions Fewer Conditions

Nowcast | as of 1:56 PM CST on December 28, 2014

Light rain with occasional small sleet or snow will dampen a few areas south of Interstate 20 and east of Gatesville today as an upper low moves east across north and central TX. Only trace amounts are expected and temperatures will remain above freezing. The area is moving east northeast at 20 to 25 mph. Otherwise...skies are clearing from the west. At 2 PM the clearing line ran from Goldthwaite to Dallas to Honey Grove...with cloudy skies east of the line. The cloud cover is slowly moving east and by evening much of north/central Texas will be fair to partly cloudy.

×

10-Day Weather Forecast

Almanac

Astronomy

Dec. 28, 2014 Rise Set
Actual Time
Civil Twilight
Nautical Twilight
Astronomical Twilight
Moon
Length of Visible Light
Length of Day
Tomorrow will be .
, % of the Moon is Illuminated

Today's Extremes

State Highs State Lows

Community

WunderPhotos

Upload Photos

1,781,414 photos uploaded!

WunderBlogs® & News

Nearby

Air Quality

  Air Quality AQ Index Pollutant
Not available.

Snow Depth

Station Depth Elevation

Earthquake Activity

City Distance Mag. Time & Date
Minimum magnitude displayed is 2.5.

Coastal Water Temperatures

Place Temperature

Nearby Weather Stations